createdAt,value
2023-03-12T00:00:36.779Z,99862.75
2023-03-12T00:03:40.515Z,99857.16
2023-03-12T00:06:42.481Z,99857.59
2023-03-12T00:09:45.375Z,99887.88
2023-03-12T00:12:47.198Z,99891.97
2023-03-12T00:15:49.092Z,99897.00
2023-03-12T00:18:52.332Z,99871.78
2023-03-12T00:21:54.209Z,99879.84
2023-03-12T00:24:56.695Z,99904.97
2023-03-12T00:27:58.766Z,99900.56
2023-03-12T00:31:00.838Z,99904.28
2023-03-12T00:34:02.887Z,99914.56
2023-03-12T00:37:04.808Z,99920.62
2023-03-12T00:40:08.524Z,99930.16
2023-03-12T00:43:10.660Z,99923.97
2023-03-12T00:46:12.648Z,99923.59
2023-03-12T00:49:14.545Z,99944.81
2023-03-12T00:52:16.511Z,99942.88
2023-03-12T00:55:18.514Z,99943.59
2023-03-12T00:58:20.410Z,99940.66
2023-03-12T01:01:22.270Z,99936.00
2023-03-12T01:04:24.378Z,99938.88
2023-03-12T01:07:26.286Z,99949.03
2023-03-12T01:10:28.279Z,99965.53
2023-03-12T01:13:30.253Z,99963.72
2023-03-12T01:16:32.307Z,99942.94
2023-03-12T01:19:34.163Z,99950.97
2023-03-12T01:22:36.324Z,99939.44
2023-03-12T01:25:38.196Z,99937.97
2023-03-12T01:28:40.160Z,99944.47
2023-03-12T01:31:42.136Z,99933.94
2023-03-12T01:34:44.740Z,99934.59
2023-03-12T01:37:46.698Z,99939.28
2023-03-12T01:40:48.628Z,99948.06
2023-03-12T01:43:51.018Z,99953.66
2023-03-12T01:46:52.891Z,99955.66
2023-03-12T01:49:54.875Z,99965.28
2023-03-12T01:52:56.693Z,99961.56
2023-03-12T01:55:58.769Z,99945.09
2023-03-12T01:59:01.156Z,99970.25
2023-03-12T02:02:03.411Z,99968.75
2023-03-12T02:05:07.602Z,99971.41
2023-03-12T02:08:10.304Z,99972.66
2023-03-12T02:11:12.263Z,99977.03
2023-03-12T02:14:14.215Z,99993.66
2023-03-12T02:17:16.130Z,99995.91
2023-03-12T02:20:18.414Z,100004.22
2023-03-12T02:23:26.317Z,99994.63
2023-03-12T02:26:28.199Z,100004.44
2023-03-12T02:29:30.388Z,99992.56
2023-03-12T02:32:36.261Z,100011.81
2023-03-12T02:35:38.492Z,100005.81
2023-03-12T02:38:46.937Z,100009.34
2023-03-12T02:41:49.359Z,100027.25
2023-03-12T02:44:51.226Z,100030.37
2023-03-12T02:47:53.218Z,100033.81
2023-03-12T02:50:55.183Z,100034.88
2023-03-12T02:53:57.051Z,100042.44
2023-03-12T02:56:58.951Z,100043.03
2023-03-12T03:00:00.820Z,100046.97
2023-03-12T03:03:02.628Z,100045.28
2023-03-12T03:06:04.601Z,100046.69
2023-03-12T03:09:06.499Z,100047.06
2023-03-12T03:12:08.463Z,100061.25
2023-03-12T03:15:10.912Z,100065.62
2023-03-12T03:18:12.760Z,100069.88
2023-03-12T03:21:16.694Z,100072.41
2023-03-12T03:24:18.615Z,100077.06
2023-03-12T03:27:20.578Z,100089.59
2023-03-12T03:30:22.751Z,100095.41
2023-03-12T03:33:24.648Z,100099.25
2023-03-12T03:36:26.668Z,100112.66
2023-03-12T03:39:29.212Z,100106.56
2023-03-12T03:42:31.152Z,100112.34
2023-03-12T03:45:33.070Z,100106.31
2023-03-12T03:48:34.878Z,100108.31
2023-03-12T03:51:36.835Z,100116.06
2023-03-12T03:54:38.707Z,100118.91
2023-03-12T03:57:40.553Z,100115.06
2023-03-12T04:00:44.268Z,100106.75
2023-03-12T04:03:46.197Z,100100.72
2023-03-12T04:06:48.058Z,100113.41
2023-03-12T04:09:51.554Z,100125.34
2023-03-12T04:12:53.925Z,100129.78
2023-03-12T04:15:55.759Z,100117.84
2023-03-12T04:18:57.676Z,100128.94
2023-03-12T04:21:59.499Z,100128.53
2023-03-12T04:25:01.595Z,100148.75
2023-03-12T04:28:03.705Z,100164.88
2023-03-12T04:31:07.049Z,100166.59
2023-03-12T04:34:09.468Z,100180.94
2023-03-12T04:37:14.189Z,100191.19
2023-03-12T04:40:16.108Z,100193.22
2023-03-12T04:43:20.909Z,100194.16
2023-03-12T04:46:22.879Z,100208.78
2023-03-12T04:49:24.837Z,100206.44
2023-03-12T04:52:27.103Z,100194.50
2023-03-12T04:55:28.991Z,100201.94
2023-03-12T04:58:30.934Z,100205.63
2023-03-12T05:01:33.594Z,100200.16
2023-03-12T05:04:35.515Z,100216.87
2023-03-12T05:07:37.380Z,100223.63
2023-03-12T05:10:39.246Z,100219.13
2023-03-12T05:13:41.195Z,100224.09
2023-03-12T05:16:43.241Z,100200.09
2023-03-12T05:19:45.210Z,100232.34
2023-03-12T05:22:47.062Z,100231.59
2023-03-12T05:25:48.877Z,100233.97
2023-03-12T05:28:50.932Z,100235.72
2023-03-12T05:31:52.913Z,100251.22
2023-03-12T05:34:54.896Z,100249.56
2023-03-12T05:37:56.792Z,100260.09
2023-03-12T05:40:59.395Z,100237.66
2023-03-12T05:44:01.365Z,100229.75
2023-03-12T05:47:03.261Z,100258.22
2023-03-12T05:50:05.428Z,100262.22
2023-03-12T05:53:07.300Z,100264.06
2023-03-12T05:56:11.384Z,100271.31
2023-03-12T05:59:13.323Z,100268.34
2023-03-12T06:02:15.332Z,100289.09
2023-03-12T06:05:17.394Z,100290.28
2023-03-12T06:08:19.217Z,100287.84
2023-03-12T06:11:21.043Z,100285.28
2023-03-12T06:14:22.907Z,100288.69
2023-03-12T06:17:24.822Z,100290.63
2023-03-12T06:20:26.703Z,100306.78
2023-03-12T06:23:28.593Z,100316.75
2023-03-12T06:26:30.508Z,100317.28
2023-03-12T06:29:32.428Z,100318.03
2023-03-12T06:32:34.485Z,100318.34
2023-03-12T06:35:36.457Z,100321.22
2023-03-12T06:38:38.827Z,100316.56
2023-03-12T06:41:41.875Z,100335.91
2023-03-12T06:44:43.750Z,100340.41
2023-03-12T06:47:45.680Z,100341.69
2023-03-12T06:50:47.582Z,100346.72
2023-03-12T06:53:49.419Z,100351.59
2023-03-12T06:56:51.290Z,100343.75
2023-03-12T06:59:53.193Z,100342.28
2023-03-12T07:02:55.066Z,100357.59
2023-03-12T07:05:57.876Z,100350.16
2023-03-12T07:08:59.736Z,100362.56
2023-03-12T07:12:02.823Z,100365.91
2023-03-12T07:15:05.040Z,100370.09
2023-03-12T07:18:07.746Z,100369.81
2023-03-12T07:21:09.676Z,100382.94
2023-03-12T07:24:11.549Z,100381.16
2023-03-12T07:27:13.441Z,100377.25
2023-03-12T07:30:15.367Z,100381.44
2023-03-12T07:33:18.207Z,100384.06
2023-03-12T07:36:20.260Z,100388.34
2023-03-12T07:39:25.943Z,100398.53
2023-03-12T07:42:27.968Z,100399.09
2023-03-12T07:45:29.848Z,100401.44
2023-03-12T07:48:31.704Z,100403.41
2023-03-12T07:51:33.618Z,100417.41
2023-03-12T07:54:36.081Z,100395.28
2023-03-12T07:57:38.320Z,100407.25
2023-03-12T08:00:40.267Z,100412.69
2023-03-12T08:03:42.344Z,100414.62
2023-03-12T08:06:44.595Z,100418.25
2023-03-12T08:09:49.483Z,100424.13
2023-03-12T08:12:51.622Z,100430.16
2023-03-12T08:15:54.092Z,100433.31
2023-03-12T08:18:56.140Z,100438.84
2023-03-12T08:21:58.227Z,100434.00
2023-03-12T08:25:00.137Z,100433.97
2023-03-12T08:28:02.071Z,100430.03
2023-03-12T08:31:04.088Z,100443.66
2023-03-12T08:34:06.045Z,100456.53
2023-03-12T08:37:07.934Z,100447.19
2023-03-12T08:40:15.768Z,100454.09
2023-03-12T08:43:17.615Z,100441.59
2023-03-12T08:46:19.505Z,100446.31
2023-03-12T08:49:21.551Z,100446.28
2023-03-12T08:52:23.432Z,100457.09
2023-03-12T08:55:26.079Z,100448.34
2023-03-12T08:58:28.230Z,100452.22
2023-03-12T09:01:30.019Z,100420.84
2023-03-12T09:04:31.924Z,100444.81
2023-03-12T09:07:33.858Z,100445.53
2023-03-12T09:10:36.032Z,100435.47
2023-03-12T09:13:58.138Z,100444.41
2023-03-12T09:17:00.297Z,100428.66
2023-03-12T09:20:02.275Z,100418.84
2023-03-12T09:23:05.636Z,100428.88
2023-03-12T09:26:11.895Z,100441.88
2023-03-12T09:29:13.720Z,100441.06
2023-03-12T09:32:16.769Z,100430.50
2023-03-12T09:35:18.790Z,100430.06
2023-03-12T09:38:20.648Z,100428.75
2023-03-12T09:41:26.293Z,100429.12
2023-03-12T09:44:31.207Z,100421.41
2023-03-12T09:47:37.236Z,100433.00
2023-03-12T09:50:43.265Z,100423.97
2023-03-12T09:53:48.506Z,100420.13
2023-03-12T09:56:51.328Z,100412.84
2023-03-12T09:59:53.148Z,100391.50
2023-03-12T10:02:55.140Z,100396.59
2023-03-12T10:06:01.447Z,100375.53
2023-03-12T10:09:07.353Z,100404.88
2023-03-12T10:12:10.549Z,100411.62
2023-03-12T10:15:35.739Z,100407.78
2023-03-12T10:18:48.350Z,100398.97
2023-03-12T10:21:50.527Z,100381.66
2023-03-12T10:25:01.717Z,100386.69
2023-03-12T10:28:14.867Z,100409.09
2023-03-12T10:31:27.512Z,100403.59
2023-03-12T10:34:32.262Z,100395.50
2023-03-12T10:37:40.297Z,100404.25
2023-03-12T10:40:42.410Z,100395.31
2023-03-12T10:43:44.292Z,100391.31
2023-03-12T10:47:09.306Z,100393.91
2023-03-12T10:50:12.787Z,100400.47
2023-03-12T10:53:26.776Z,100391.25
2023-03-12T10:56:30.613Z,100395.94
2023-03-12T10:59:36.853Z,100404.53
2023-03-12T11:02:40.400Z,100402.63
2023-03-12T11:05:55.427Z,100400.84
2023-03-12T11:09:16.103Z,100400.31
2023-03-12T11:12:25.959Z,100405.88
2023-03-12T11:15:29.214Z,100399.97
2023-03-12T11:18:32.834Z,100407.19
2023-03-12T11:21:37.165Z,100385.47
2023-03-12T11:24:54.780Z,100398.75
2023-03-12T11:27:57.076Z,100413.19
2023-03-12T11:30:59.111Z,100389.50
2023-03-12T11:34:03.845Z,100398.69
2023-03-12T11:37:15.090Z,100389.31
2023-03-12T11:40:25.863Z,100400.47
2023-03-12T11:43:44.360Z,100393.81
2023-03-12T11:46:52.424Z,100406.47
2023-03-12T11:49:57.407Z,100409.97
2023-03-12T11:53:11.701Z,100386.34
2023-03-12T11:56:36.837Z,100393.00
2023-03-12T11:59:57.241Z,100399.75
2023-03-12T12:03:02.273Z,100386.66
2023-03-12T12:06:07.004Z,100389.78
2023-03-12T12:09:23.645Z,100375.87
2023-03-12T12:12:25.499Z,100380.06
2023-03-12T12:15:33.526Z,100369.53
2023-03-12T12:18:44.596Z,100364.94
2023-03-12T12:21:56.583Z,100368.31
2023-03-12T12:24:58.676Z,100373.53
2023-03-12T12:28:04.711Z,100372.28
2023-03-12T12:31:09.322Z,100368.31
2023-03-12T12:34:11.280Z,100365.91
2023-03-12T12:37:24.094Z,100358.50
2023-03-12T12:40:27.725Z,100373.84
2023-03-12T12:43:29.616Z,100349.16
2023-03-12T12:46:32.716Z,100364.78
2023-03-12T12:49:43.980Z,100359.00
2023-03-12T12:52:46.437Z,100358.38
2023-03-12T12:55:57.160Z,100352.81
2023-03-12T12:59:09.440Z,100364.00
2023-03-12T13:02:30.947Z,100363.66
2023-03-12T13:05:46.589Z,100354.44
2023-03-12T13:08:48.432Z,100357.41
2023-03-12T13:11:51.704Z,100364.97
2023-03-12T13:14:53.955Z,100346.47
2023-03-12T13:17:55.834Z,100341.19
2023-03-12T13:21:13.495Z,100370.56
2023-03-12T13:24:17.863Z,100354.31
2023-03-12T13:27:24.173Z,100338.91
2023-03-12T13:30:35.288Z,100347.78
2023-03-12T13:33:39.602Z,100351.47
2023-03-12T13:36:41.483Z,100352.03
2023-03-12T13:39:43.335Z,100345.44
2023-03-12T13:42:45.193Z,100363.13
2023-03-12T13:46:06.855Z,100354.19
2023-03-12T13:49:11.298Z,100365.00
2023-03-12T13:52:32.194Z,100356.56
2023-03-12T13:55:34.886Z,100365.41
2023-03-12T13:58:49.061Z,100379.44
2023-03-12T14:01:51.473Z,100382.75
2023-03-12T14:04:53.599Z,100381.25
2023-03-12T14:07:58.104Z,100393.84
2023-03-12T14:11:03.075Z,100392.91
2023-03-12T14:14:08.071Z,100390.47
2023-03-12T14:17:15.769Z,100399.56
2023-03-12T14:20:18.680Z,100399.75
2023-03-12T14:23:20.936Z,100405.78
2023-03-12T14:26:30.544Z,100407.94
2023-03-12T14:29:39.389Z,100400.41
2023-03-12T14:32:41.316Z,100403.41
2023-03-12T14:36:04.109Z,100405.53
2023-03-12T14:39:10.531Z,100386.56
2023-03-12T14:42:18.749Z,100400.53
2023-03-12T14:45:21.542Z,100399.16
2023-03-12T14:48:24.508Z,100384.59
2023-03-12T14:51:27.515Z,100380.72
2023-03-12T14:54:29.621Z,100399.31
2023-03-12T14:57:31.565Z,100407.03
2023-03-12T15:00:33.459Z,100398.59
2023-03-12T15:03:43.687Z,100390.28
2023-03-12T15:06:59.100Z,100380.03
2023-03-12T15:10:01.129Z,100393.13
2023-03-12T15:13:03.046Z,100402.19
2023-03-12T15:16:05.168Z,100397.38
2023-03-12T15:19:07.236Z,100409.19
2023-03-12T15:22:11.848Z,100411.38
2023-03-12T15:25:25.964Z,100402.09
2023-03-12T15:28:28.285Z,100411.03
2023-03-12T15:31:42.620Z,100422.34
2023-03-12T15:34:44.756Z,100417.13
2023-03-12T15:37:50.387Z,100423.41
2023-03-12T15:40:53.925Z,100413.69
2023-03-12T15:43:56.197Z,100430.00
2023-03-12T15:47:03.561Z,100434.56
2023-03-12T15:50:08.623Z,100435.19
2023-03-12T15:53:13.587Z,100445.03
2023-03-12T15:56:17.164Z,100436.56
2023-03-12T15:59:26.158Z,100447.69
2023-03-12T16:02:36.306Z,100438.47
2023-03-12T16:05:38.904Z,100452.12
2023-03-12T16:08:41.948Z,100459.75
2023-03-12T16:11:43.870Z,100458.78
2023-03-12T16:14:45.726Z,100453.28
2023-03-12T16:17:47.551Z,100452.75
2023-03-12T16:20:50.241Z,100452.59
2023-03-12T16:23:52.200Z,100449.16
2023-03-12T16:26:55.214Z,100454.56
2023-03-12T16:29:57.109Z,100465.94
2023-03-12T16:32:59.500Z,100469.56
2023-03-12T16:36:01.455Z,100475.62
2023-03-12T16:39:04.342Z,100480.41
2023-03-12T16:42:09.690Z,100465.78
2023-03-12T16:45:12.806Z,100487.63
2023-03-12T16:48:16.111Z,100482.00
2023-03-12T16:51:18.096Z,100485.16
2023-03-12T16:54:19.987Z,100489.19
2023-03-12T16:57:30.069Z,100495.72
2023-03-12T17:00:33.022Z,100482.88
2023-03-12T17:03:36.851Z,100494.81
2023-03-12T17:06:40.548Z,100510.53
2023-03-12T17:09:42.455Z,100509.19
2023-03-12T17:12:44.911Z,100509.16
2023-03-12T17:15:47.901Z,100513.19
2023-03-12T17:18:49.754Z,100521.28
2023-03-12T17:21:52.573Z,100513.84
2023-03-12T17:24:54.452Z,100528.09
2023-03-12T17:27:57.412Z,100522.66
2023-03-12T17:30:59.485Z,100513.81
2023-03-12T17:34:03.862Z,100514.87
2023-03-12T17:37:05.718Z,100516.31
2023-03-12T17:40:09.438Z,100518.59
2023-03-12T17:43:11.381Z,100521.03
2023-03-12T17:46:13.280Z,100523.03
2023-03-12T17:49:15.111Z,100528.09
2023-03-12T17:52:16.986Z,100520.69
2023-03-12T17:55:18.873Z,100520.19
2023-03-12T17:58:20.771Z,100503.78
2023-03-12T18:01:22.599Z,100512.19
2023-03-12T18:04:24.553Z,100510.00
2023-03-12T18:07:26.459Z,100509.31
2023-03-12T18:10:28.312Z,100512.06
2023-03-12T18:13:30.491Z,100509.06
2023-03-12T18:16:32.391Z,100503.38
2023-03-12T18:19:35.549Z,100513.66
2023-03-12T18:22:40.723Z,100515.56
2023-03-12T18:25:42.545Z,100516.47
2023-03-12T18:28:44.416Z,100519.22
2023-03-12T18:31:46.306Z,100520.09
2023-03-12T18:34:48.252Z,100536.69
2023-03-12T18:37:51.927Z,100535.50
2023-03-12T18:41:01.329Z,100539.25
2023-03-12T18:44:03.249Z,100528.75
2023-03-12T18:47:05.356Z,100538.28
2023-03-12T18:50:08.317Z,100534.12
2023-03-12T18:53:10.322Z,100553.13
2023-03-12T18:56:12.202Z,100554.84
2023-03-12T18:59:14.967Z,100546.78
2023-03-12T19:02:16.938Z,100547.75
2023-03-12T19:05:18.896Z,100546.63
2023-03-12T19:08:22.983Z,100547.28
2023-03-12T19:11:25.012Z,100542.63
2023-03-12T19:14:26.848Z,100547.28
2023-03-12T19:17:30.764Z,100538.22
2023-03-12T19:20:32.765Z,100546.25
2023-03-12T19:23:35.734Z,100545.37
2023-03-12T19:26:37.539Z,100533.03
2023-03-12T19:29:39.382Z,100525.88
2023-03-12T19:32:44.311Z,100525.91
2023-03-12T19:35:46.565Z,100553.13
2023-03-12T19:38:48.471Z,100562.84
2023-03-12T19:41:50.459Z,100558.44
2023-03-12T19:44:52.408Z,100576.72
2023-03-12T19:47:54.430Z,100584.62
2023-03-12T19:50:56.415Z,100598.34
2023-03-12T19:53:58.338Z,100598.91
2023-03-12T19:57:00.200Z,100599.84
2023-03-12T20:00:02.164Z,100586.97
2023-03-12T20:03:05.232Z,100589.41
2023-03-12T20:06:12.364Z,100594.19
2023-03-12T20:09:14.399Z,100584.09
2023-03-12T20:12:16.244Z,100564.28
2023-03-12T20:15:18.427Z,100583.63
2023-03-12T20:18:20.327Z,100592.94
2023-03-12T20:21:22.188Z,100588.88
2023-03-12T20:24:24.218Z,100586.09
2023-03-12T20:27:26.153Z,100567.88
2023-03-12T20:30:28.069Z,100585.44
2023-03-12T20:33:30.019Z,100599.84
2023-03-12T20:36:31.968Z,100583.13
2023-03-12T20:39:33.793Z,100603.25
2023-03-12T20:42:35.695Z,100597.81
2023-03-12T20:45:37.567Z,100574.09
2023-03-12T20:48:39.566Z,100582.84
2023-03-12T20:51:42.811Z,100585.28
2023-03-12T20:54:44.638Z,100569.53
2023-03-12T20:57:46.532Z,100601.34
2023-03-12T21:00:48.404Z,100605.56
2023-03-12T21:03:50.306Z,100608.53
2023-03-12T21:06:52.193Z,100603.53
2023-03-12T21:09:54.012Z,100607.53
2023-03-12T21:12:56.037Z,100626.47
2023-03-12T21:15:58.025Z,100613.13
2023-03-12T21:18:59.991Z,100623.19
2023-03-12T21:22:01.889Z,100623.31
2023-03-12T21:25:04.373Z,100611.28
2023-03-12T21:28:06.648Z,100599.84
2023-03-12T21:31:09.523Z,100608.41
2023-03-12T21:34:11.429Z,100605.91
2023-03-12T21:37:13.349Z,100579.34
2023-03-12T21:40:15.490Z,100578.88
2023-03-12T21:43:17.388Z,100598.28
2023-03-12T21:46:20.164Z,100603.72
2023-03-12T21:49:22.223Z,100608.59
2023-03-12T21:52:24.211Z,100601.19
2023-03-12T21:55:26.005Z,100593.16
2023-03-12T21:58:28.505Z,100587.03
2023-03-12T22:01:30.396Z,100596.63
2023-03-12T22:04:32.322Z,100589.47
2023-03-12T22:07:34.432Z,100608.56
2023-03-12T22:10:36.227Z,100579.91
2023-03-12T22:13:38.177Z,100578.41
2023-03-12T22:16:40.139Z,100577.81
2023-03-12T22:19:42.183Z,100582.50
2023-03-12T22:22:44.050Z,100590.06
2023-03-12T22:25:46.055Z,100596.50
2023-03-12T22:28:51.708Z,100576.75
2023-03-12T22:31:53.684Z,100574.78
2023-03-12T22:34:55.587Z,100584.25
2023-03-12T22:37:57.462Z,100590.22
2023-03-12T22:40:59.275Z,100590.75
2023-03-12T22:44:02.292Z,100587.97
2023-03-12T22:47:04.211Z,100591.78
2023-03-12T22:50:06.358Z,100584.53
2023-03-12T22:53:08.241Z,100575.87
2023-03-12T22:56:11.083Z,100592.44
2023-03-12T22:59:12.958Z,100599.19
2023-03-12T23:02:14.871Z,100601.34
2023-03-12T23:05:17.149Z,100598.31
2023-03-12T23:08:19.176Z,100609.22
2023-03-12T23:11:21.117Z,100610.22
2023-03-12T23:14:22.921Z,100620.91
2023-03-12T23:17:24.857Z,100627.25
2023-03-12T23:20:26.726Z,100631.69
2023-03-12T23:23:28.728Z,100646.00
2023-03-12T23:26:30.658Z,100631.75
2023-03-12T23:29:33.090Z,100643.09
2023-03-12T23:32:35.043Z,100639.75
2023-03-12T23:35:36.966Z,100651.41
2023-03-12T23:38:39.057Z,100654.41
2023-03-12T23:41:41.288Z,100655.44
2023-03-12T23:44:43.156Z,100662.12
2023-03-12T23:47:45.080Z,100642.59
2023-03-12T23:50:46.939Z,100662.16
2023-03-12T23:53:49.751Z,100663.22
2023-03-12T23:56:51.608Z,100668.94
2023-03-12T23:59:53.457Z,100654.00
